Pickwick Observed Data For Previous 48 Hours

Caption
Day and Hour Reservoir Elevation (behind dam)* Tailwater Elevation (below dam)* Average Hourly Discharge*
1/27/2020 1 AM CST 410.35 370.47 115,463
1/27/2020 2 AM CST 410.34 370.51 115,346
1/27/2020 3 AM CST 410.33 370.46 115,244
1/27/2020 4 AM CST 410.33 370.43 114,815
1/27/2020 5 AM CST 410.32 370.40 114,724
1/27/2020 6 AM CST 410.31 370.40 114,392
1/27/2020 7 AM CST 410.31 370.38 114,250
1/27/2020 8 AM CST 410.30 370.36 114,497
1/27/2020 9 AM CST 410.27 370.35 114,051
1/27/2020 10 AM CST 410.26 370.33 113,894
1/27/2020 11 AM CST 410.17 370.50 117,388
1/27/2020 12 PM CST 410.17 370.94 126,622
1/27/2020 1 PM CST 410.22 370.95 127,054
1/27/2020 2 PM CST 410.21 370.69 114,222
1/27/2020 3 PM CST 410.17 370.66 113,856
1/27/2020 4 PM CST 410.16 370.59 113,669
1/27/2020 5 PM CST 410.12 370.57 113,428
1/27/2020 6 PM CST 410.13 370.51 113,307
1/27/2020 7 PM CST 410.08 370.50 112,961
1/27/2020 8 PM CST 410.07 370.44 112,628
1/27/2020 9 PM CST 410.05 370.39 112,265
1/27/2020 10 PM CST 410.03 370.37 112,060
1/27/2020 11 PM CST 409.99 370.33 111,760
1/28/2020 12 AM CST 409.98 370.29 111,752
1/28/2020 1 AM CST 409.96 370.26 111,597
1/28/2020 2 AM CST 409.95 370.23 111,362
1/28/2020 3 AM CST 409.93 370.20 111,333
1/28/2020 4 AM CST 409.91 370.17 111,156
1/28/2020 5 AM CST 409.90 370.14 110,957
1/28/2020 6 AM CST 409.88 370.12 110,858
1/28/2020 7 AM CST 409.87 370.10 110,547
1/28/2020 8 AM CST 409.84 370.07 110,218
1/28/2020 9 AM CST 409.82 370.05 110,018
1/28/2020 10 AM CST 409.81 370.04 109,814
1/28/2020 11 AM CST 409.80 370.01 109,672
1/28/2020 12 PM CST 409.77 370.02 109,487
1/28/2020 1 PM CST 409.80 369.66 99,491
1/28/2020 2 PM CST 409.75 369.79 108,887
1/28/2020 3 PM CST 409.74 369.83 108,928
1/28/2020 4 PM CST 409.73 369.82 108,835
1/28/2020 5 PM CST 409.70 369.83 108,755
1/28/2020 6 PM CST 409.62 369.77 108,038
1/28/2020 7 PM CST 409.61 369.78 107,715
1/28/2020 8 PM CST 409.63 369.73 107,768
1/28/2020 9 PM CST 409.59 369.72 107,777
1/28/2020 10 PM CST 409.58 369.68 107,550
1/28/2020 11 PM CST 409.56 369.66 106,963
1/29/2020 12 AM CST 409.54 369.65 106,988
1/29/2020 1 AM CST 409.53 369.64 106,860
1/29/2020 2 AM CST 409.53 369.58 106,739
1/29/2020 3 AM CST 409.49 369.62 106,371
1/29/2020 4 AM CST 409.50 369.55 106,202
1/29/2020 5 AM CST 409.46 369.51 105,851
1/29/2020 6 AM CST 409.43 369.47 105,330
1/29/2020 7 AM CST 409.41 369.44 105,424
1/29/2020 8 AM CST 409.38 369.42 104,721
1/29/2020 9 AM CST 409.40 369.41 104,664
1/29/2020 10 AM CST 409.34 369.43 104,756
1/29/2020 11 AM CST 409.35 369.38 104,459
1/29/2020 12 PM CST 409.32 369.36 104,101
1/29/2020 1 PM CST 409.31 369.36 104,158
1/29/2020 2 PM CST 409.40 368.80 98,185
1/29/2020 3 PM CST 409.44 368.15 106,855

Elevations are in feet above sea level. Discharges are in cubic feet per second and are reported at the end of the hour.